sensor_id;sensor_type;location;lat;lon;timestamp;temperature;humidity
30148;DHT22;16960;49.404;8.248;2023-06-22T00:00:53;26.80;53.10
30148;DHT22;16960;49.404;8.248;2023-06-22T00:03:22;26.80;53.10
30148;DHT22;16960;49.404;8.248;2023-06-22T00:05:50;26.80;53.10
30148;DHT22;16960;49.404;8.248;2023-06-22T00:08:17;26.80;53.00
30148;DHT22;16960;49.404;8.248;2023-06-22T00:10:45;26.80;53.70
30148;DHT22;16960;49.404;8.248;2023-06-22T00:13:13;26.80;53.10
30148;DHT22;16960;49.404;8.248;2023-06-22T00:15:41;26.80;53.00
30148;DHT22;16960;49.404;8.248;2023-06-22T00:18:10;26.80;53.00
30148;DHT22;16960;49.404;8.248;2023-06-22T00:20:38;26.80;53.00
30148;DHT22;16960;49.404;8.248;2023-06-22T00:23:06;26.80;52.90
30148;DHT22;16960;49.404;8.248;2023-06-22T00:25:34;26.80;52.90
30148;DHT22;16960;49.404;8.248;2023-06-22T00:28:02;26.80;52.90
30148;DHT22;16960;49.404;8.248;2023-06-22T00:30:29;26.80;53.10
30148;DHT22;16960;49.404;8.248;2023-06-22T00:32:57;26.80;52.90
30148;DHT22;16960;49.404;8.248;2023-06-22T00:35:26;26.80;52.80
30148;DHT22;16960;49.404;8.248;2023-06-22T00:37:55;26.80;52.80
30148;DHT22;16960;49.404;8.248;2023-06-22T00:40:26;26.80;52.80
30148;DHT22;16960;49.404;8.248;2023-06-22T00:43:05;26.80;52.70
30148;DHT22;16960;49.404;8.248;2023-06-22T00:45:38;26.80;52.70
30148;DHT22;16960;49.404;8.248;2023-06-22T00:48:06;26.80;52.70
30148;DHT22;16960;49.404;8.248;2023-06-22T00:50:35;26.80;52.70
30148;DHT22;16960;49.404;8.248;2023-06-22T00:53:04;26.80;52.60
30148;DHT22;16960;49.404;8.248;2023-06-22T00:55:34;26.80;52.70
30148;DHT22;16960;49.404;8.248;2023-06-22T00:58:03;26.80;52.70
30148;DHT22;16960;49.404;8.248;2023-06-22T01:00:33;26.80;52.80
30148;DHT22;16960;49.404;8.248;2023-06-22T01:03:01;26.80;52.80
30148;DHT22;16960;49.404;8.248;2023-06-22T01:05:28;26.80;52.80
30148;DHT22;16960;49.404;8.248;2023-06-22T01:08:06;26.80;52.80
30148;DHT22;16960;49.404;8.248;2023-06-22T01:10:40;26.80;52.80
30148;DHT22;16960;49.404;8.248;2023-06-22T01:13:16;26.80;52.80
30148;DHT22;16960;49.404;8.248;2023-06-22T01:15:55;26.80;52.80
30148;DHT22;16960;49.404;8.248;2023-06-22T01:18:23;26.90;52.80
30148;DHT22;16960;49.404;8.248;2023-06-22T01:20:53;26.90;52.80
30148;DHT22;16960;49.404;8.248;2023-06-22T01:23:53;26.80;52.80
30148;DHT22;16960;49.404;8.248;2023-06-22T01:26:31;26.80;52.80
30148;DHT22;16960;49.404;8.248;2023-06-22T01:29:04;26.80;52.80
30148;DHT22;16960;49.404;8.248;2023-06-22T01:31:33;26.80;52.90
30148;DHT22;16960;49.404;8.248;2023-06-22T01:34:03;26.80;52.90
30148;DHT22;16960;49.404;8.248;2023-06-22T01:36:31;26.90;53.00
30148;DHT22;16960;49.404;8.248;2023-06-22T01:38:59;26.90;53.00
30148;DHT22;16960;49.404;8.248;2023-06-22T01:41:27;26.90;52.90
30148;DHT22;16960;49.404;8.248;2023-06-22T01:43:56;26.80;53.00
30148;DHT22;16960;49.404;8.248;2023-06-22T01:46:25;26.80;53.00
30148;DHT22;16960;49.404;8.248;2023-06-22T01:48:52;26.80;52.90
30148;DHT22;16960;49.404;8.248;2023-06-22T01:51:19;26.80;52.90
30148;DHT22;16960;49.404;8.248;2023-06-22T01:53:46;26.90;53.00
30148;DHT22;16960;49.404;8.248;2023-06-22T01:56:16;26.80;53.00
30148;DHT22;16960;49.404;8.248;2023-06-22T01:58:49;26.80;53.00
30148;DHT22;16960;49.404;8.248;2023-06-22T02:01:22;26.80;53.10
30148;DHT22;16960;49.404;8.248;2023-06-22T02:03:59;26.90;53.00
30148;DHT22;16960;49.404;8.248;2023-06-22T02:06:33;26.80;53.00
30148;DHT22;16960;49.404;8.248;2023-06-22T02:09:06;26.90;53.00
30148;DHT22;16960;49.404;8.248;2023-06-22T02:11:35;26.90;53.70
30148;DHT22;16960;49.404;8.248;2023-06-22T02:14:05;26.80;53.00
30148;DHT22;16960;49.404;8.248;2023-06-22T02:16:32;26.90;53.00
30148;DHT22;16960;49.404;8.248;2023-06-22T02:19:02;26.80;52.90
30148;DHT22;16960;49.404;8.248;2023-06-22T02:21:29;26.90;53.00
30148;DHT22;16960;49.404;8.248;2023-06-22T02:23:56;26.90;52.90
30148;DHT22;16960;49.404;8.248;2023-06-22T02:26:24;26.80;53.00
30148;DHT22;16960;49.404;8.248;2023-06-22T02:28:51;26.80;52.90
30148;DHT22;16960;49.404;8.248;2023-06-22T02:31:19;26.80;52.90
30148;DHT22;16960;49.404;8.248;2023-06-22T02:33:46;26.90;53.00
30148;DHT22;16960;49.404;8.248;2023-06-22T02:36:15;26.80;53.00
30148;DHT22;16960;49.404;8.248;2023-06-22T02:38:42;26.80;52.90
30148;DHT22;16960;49.404;8.248;2023-06-22T02:41:14;26.80;52.90
30148;DHT22;16960;49.404;8.248;2023-06-22T02:43:44;26.80;52.90
30148;DHT22;16960;49.404;8.248;2023-06-22T02:46:12;26.80;53.00
30148;DHT22;16960;49.404;8.248;2023-06-22T02:48:39;26.80;53.00
30148;DHT22;16960;49.404;8.248;2023-06-22T02:51:06;26.80;52.90
30148;DHT22;16960;49.404;8.248;2023-06-22T02:53:35;26.80;53.00
30148;DHT22;16960;49.404;8.248;2023-06-22T02:56:02;26.80;52.90
30148;DHT22;16960;49.404;8.248;2023-06-22T02:58:31;26.80;52.90
30148;DHT22;16960;49.404;8.248;2023-06-22T03:01:04;26.80;52.90
30148;DHT22;16960;49.404;8.248;2023-06-22T03:03:31;26.80;52.90
30148;DHT22;16960;49.404;8.248;2023-06-22T03:05:58;26.80;52.90
30148;DHT22;16960;49.404;8.248;2023-06-22T03:08:26;26.80;53.00
30148;DHT22;16960;49.404;8.248;2023-06-22T03:10:56;26.80;52.90
30148;DHT22;16960;49.404;8.248;2023-06-22T03:13:23;26.80;53.00
30148;DHT22;16960;49.404;8.248;2023-06-22T03:15:50;26.80;53.00
30148;DHT22;16960;49.404;8.248;2023-06-22T03:18:18;26.80;53.00
30148;DHT22;16960;49.404;8.248;2023-06-22T03:20:45;26.80;53.00
30148;DHT22;16960;49.404;8.248;2023-06-22T03:23:12;26.80;53.00
30148;DHT22;16960;49.404;8.248;2023-06-22T03:25:39;26.80;53.00
30148;DHT22;16960;49.404;8.248;2023-06-22T03:28:07;26.80;53.70
30148;DHT22;16960;49.404;8.248;2023-06-22T03:30:34;26.80;53.00
30148;DHT22;16960;49.404;8.248;2023-06-22T03:33:01;26.80;53.00
30148;DHT22;16960;49.404;8.248;2023-06-22T03:35:28;26.80;53.00
30148;DHT22;16960;49.404;8.248;2023-06-22T03:37:54;26.80;53.00
30148;DHT22;16960;49.404;8.248;2023-06-22T03:40:21;26.80;53.00
30148;DHT22;16960;49.404;8.248;2023-06-22T03:42:48;26.80;53.00
30148;DHT22;16960;49.404;8.248;2023-06-22T03:45:17;26.80;53.00
30148;DHT22;16960;49.404;8.248;2023-06-22T03:47:44;26.80;53.00
30148;DHT22;16960;49.404;8.248;2023-06-22T03:50:11;26.80;53.00
30148;DHT22;16960;49.404;8.248;2023-06-22T03:52:39;26.80;53.00
30148;DHT22;16960;49.404;8.248;2023-06-22T03:55:07;26.80;53.00
30148;DHT22;16960;49.404;8.248;2023-06-22T03:57:34;26.80;53.00
30148;DHT22;16960;49.404;8.248;2023-06-22T04:00:01;26.80;53.00
30148;DHT22;16960;49.404;8.248;2023-06-22T04:02:32;26.80;53.00
30148;DHT22;16960;49.404;8.248;2023-06-22T04:04:59;26.80;52.90
30148;DHT22;16960;49.404;8.248;2023-06-22T04:07:26;26.80;52.90
30148;DHT22;16960;49.404;8.248;2023-06-22T04:09:53;26.80;53.00
30148;DHT22;16960;49.404;8.248;2023-06-22T04:12:20;26.80;52.90
30148;DHT22;16960;49.404;8.248;2023-06-22T04:14:46;26.70;53.00
30148;DHT22;16960;49.404;8.248;2023-06-22T04:17:13;26.70;53.00
30148;DHT22;16960;49.404;8.248;2023-06-22T04:19:42;26.80;53.00
30148;DHT22;16960;49.404;8.248;2023-06-22T04:22:08;26.80;53.00
30148;DHT22;16960;49.404;8.248;2023-06-22T04:24:35;26.80;53.00
30148;DHT22;16960;49.404;8.248;2023-06-22T04:27:03;26.70;53.70
30148;DHT22;16960;49.404;8.248;2023-06-22T04:29:30;26.80;53.00
30148;DHT22;16960;49.404;8.248;2023-06-22T04:31:58;26.70;53.00
30148;DHT22;16960;49.404;8.248;2023-06-22T04:34:28;26.80;53.00
30148;DHT22;16960;49.404;8.248;2023-06-22T04:36:57;26.70;53.00
30148;DHT22;16960;49.404;8.248;2023-06-22T04:39:24;26.70;53.00
30148;DHT22;16960;49.404;8.248;2023-06-22T04:41:52;26.80;53.00
30148;DHT22;16960;49.404;8.248;2023-06-22T04:44:20;26.80;53.00
30148;DHT22;16960;49.404;8.248;2023-06-22T04:46:51;26.70;53.00
30148;DHT22;16960;49.404;8.248;2023-06-22T04:49:20;26.70;53.00
30148;DHT22;16960;49.404;8.248;2023-06-22T04:51:48;26.70;53.00
30148;DHT22;16960;49.404;8.248;2023-06-22T04:54:18;26.70;53.00
30148;DHT22;16960;49.404;8.248;2023-06-22T04:56:45;26.70;53.10
30148;DHT22;16960;49.404;8.248;2023-06-22T04:59:15;26.70;53.00
30148;DHT22;16960;49.404;8.248;2023-06-22T05:01:44;26.70;53.00
30148;DHT22;16960;49.404;8.248;2023-06-22T05:04:11;26.70;53.00
30148;DHT22;16960;49.404;8.248;2023-06-22T05:06:38;26.70;53.10
30148;DHT22;16960;49.404;8.248;2023-06-22T05:09:05;26.70;53.30
30148;DHT22;16960;49.404;8.248;2023-06-22T05:11:33;26.70;54.30
30148;DHT22;16960;49.404;8.248;2023-06-22T05:14:00;26.70;54.80
30148;DHT22;16960;49.404;8.248;2023-06-22T05:16:27;26.60;55.10
30148;DHT22;16960;49.404;8.248;2023-06-22T05:18:54;26.60;55.40
30148;DHT22;16960;49.404;8.248;2023-06-22T05:21:22;26.60;55.80
30148;DHT22;16960;49.404;8.248;2023-06-22T05:23:50;26.50;56.20
30148;DHT22;16960;49.404;8.248;2023-06-22T05:26:17;26.60;56.50
30148;DHT22;16960;49.404;8.248;2023-06-22T05:28:46;26.50;56.80
30148;DHT22;16960;49.404;8.248;2023-06-22T05:31:14;26.50;57.10
30148;DHT22;16960;49.404;8.248;2023-06-22T05:33:41;26.50;57.20
30148;DHT22;16960;49.404;8.248;2023-06-22T05:36:08;26.50;57.40
30148;DHT22;16960;49.404;8.248;2023-06-22T05:38:35;26.50;57.40
30148;DHT22;16960;49.404;8.248;2023-06-22T05:41:02;26.50;57.40
30148;DHT22;16960;49.404;8.248;2023-06-22T05:43:29;26.50;57.60
30148;DHT22;16960;49.404;8.248;2023-06-22T05:45:59;26.50;57.80
30148;DHT22;16960;49.404;8.248;2023-06-22T05:48:26;26.40;57.70
30148;DHT22;16960;49.404;8.248;2023-06-22T05:50:53;26.40;57.90
30148;DHT22;16960;49.404;8.248;2023-06-22T05:53:20;26.40;57.90
30148;DHT22;16960;49.404;8.248;2023-06-22T05:55:47;26.40;58.10
30148;DHT22;16960;49.404;8.248;2023-06-22T05:58:14;26.40;58.30
30148;DHT22;16960;49.404;8.248;2023-06-22T06:00:42;26.40;58.40
30148;DHT22;16960;49.404;8.248;2023-06-22T06:03:10;26.40;58.50
30148;DHT22;16960;49.404;8.248;2023-06-22T06:05:38;26.40;58.60
30148;DHT22;16960;49.404;8.248;2023-06-22T06:08:06;26.40;59.90
30148;DHT22;16960;49.404;8.248;2023-06-22T06:10:34;26.40;60.20
30148;DHT22;16960;49.404;8.248;2023-06-22T06:13:01;26.40;59.60
30148;DHT22;16960;49.404;8.248;2023-06-22T06:15:30;26.40;59.50
30148;DHT22;16960;49.404;8.248;2023-06-22T06:17:57;26.50;59.40
30148;DHT22;16960;49.404;8.248;2023-06-22T06:20:26;26.50;59.80
30148;DHT22;16960;49.404;8.248;2023-06-22T06:22:54;26.60;59.80
30148;DHT22;16960;49.404;8.248;2023-06-22T06:25:21;26.60;59.60
30148;DHT22;16960;49.404;8.248;2023-06-22T06:27:50;26.70;59.40
30148;DHT22;16960;49.404;8.248;2023-06-22T06:30:18;26.70;59.30
30148;DHT22;16960;49.404;8.248;2023-06-22T06:32:46;26.80;59.80
30148;DHT22;16960;49.404;8.248;2023-06-22T06:35:14;26.80;59.30
30148;DHT22;16960;49.404;8.248;2023-06-22T06:37:44;26.80;59.30
30148;DHT22;16960;49.404;8.248;2023-06-22T06:40:13;26.80;59.20
30148;DHT22;16960;49.404;8.248;2023-06-22T06:42:41;26.90;59.00
30148;DHT22;16960;49.404;8.248;2023-06-22T06:45:10;26.90;58.90
30148;DHT22;16960;49.404;8.248;2023-06-22T06:47:37;26.90;59.00
30148;DHT22;16960;49.404;8.248;2023-06-22T06:50:06;26.90;59.00
30148;DHT22;16960;49.404;8.248;2023-06-22T06:52:33;27.00;59.50
30148;DHT22;16960;49.404;8.248;2023-06-22T06:55:02;27.00;59.40
30148;DHT22;16960;49.404;8.248;2023-06-22T06:57:30;27.00;59.20
30148;DHT22;16960;49.404;8.248;2023-06-22T06:59:58;27.00;59.00
30148;DHT22;16960;49.404;8.248;2023-06-22T07:02:25;27.00;59.10
30148;DHT22;16960;49.404;8.248;2023-06-22T07:04:53;27.10;58.60
30148;DHT22;16960;49.404;8.248;2023-06-22T07:07:22;27.10;58.70
30148;DHT22;16960;49.404;8.248;2023-06-22T07:09:48;27.10;58.80
30148;DHT22;16960;49.404;8.248;2023-06-22T07:12:17;27.10;58.70
30148;DHT22;16960;49.404;8.248;2023-06-22T07:14:44;27.20;58.50
30148;DHT22;16960;49.404;8.248;2023-06-22T07:17:11;27.20;58.50
30148;DHT22;16960;49.404;8.248;2023-06-22T07:19:37;27.20;58.40
30148;DHT22;16960;49.404;8.248;2023-06-22T07:22:05;27.30;58.70
30148;DHT22;16960;49.404;8.248;2023-06-22T07:24:32;27.30;58.40
30148;DHT22;16960;49.404;8.248;2023-06-22T07:26:59;27.40;58.10
30148;DHT22;16960;49.404;8.248;2023-06-22T07:29:29;27.30;58.10
30148;DHT22;16960;49.404;8.248;2023-06-22T07:31:57;27.40;58.00
30148;DHT22;16960;49.404;8.248;2023-06-22T07:34:26;27.40;57.80
30148;DHT22;16960;49.404;8.248;2023-06-22T07:36:53;27.40;58.00
30148;DHT22;16960;49.404;8.248;2023-06-22T07:39:20;27.40;58.10
30148;DHT22;16960;49.404;8.248;2023-06-22T07:41:51;27.40;58.10
30148;DHT22;16960;49.404;8.248;2023-06-22T07:44:18;27.50;57.90
30148;DHT22;16960;49.404;8.248;2023-06-22T07:46:46;27.50;57.60
30148;DHT22;16960;49.404;8.248;2023-06-22T07:49:13;27.50;57.60
30148;DHT22;16960;49.404;8.248;2023-06-22T07:51:40;27.50;57.50
30148;DHT22;16960;49.404;8.248;2023-06-22T07:54:07;27.50;57.20
30148;DHT22;16960;49.404;8.248;2023-06-22T07:56:35;27.50;56.90
30148;DHT22;16960;49.404;8.248;2023-06-22T07:59:02;27.50;56.80
30148;DHT22;16960;49.404;8.248;2023-06-22T08:01:29;27.50;56.60
30148;DHT22;16960;49.404;8.248;2023-06-22T08:03:58;27.60;56.50
30148;DHT22;16960;49.404;8.248;2023-06-22T08:06:25;27.60;56.20
30148;DHT22;16960;49.404;8.248;2023-06-22T08:08:51;27.60;56.00
30148;DHT22;16960;49.404;8.248;2023-06-22T08:11:19;27.70;55.90
30148;DHT22;16960;49.404;8.248;2023-06-22T08:13:48;27.70;55.70
30148;DHT22;16960;49.404;8.248;2023-06-22T08:16:15;27.70;55.50
30148;DHT22;16960;49.404;8.248;2023-06-22T08:18:41;27.80;55.40
30148;DHT22;16960;49.404;8.248;2023-06-22T08:21:10;27.70;55.30
30148;DHT22;16960;49.404;8.248;2023-06-22T08:23:37;27.80;55.20
30148;DHT22;16960;49.404;8.248;2023-06-22T08:26:04;27.80;55.10
30148;DHT22;16960;49.404;8.248;2023-06-22T08:28:31;27.80;55.00
30148;DHT22;16960;49.404;8.248;2023-06-22T08:30:59;27.80;55.00
30148;DHT22;16960;49.404;8.248;2023-06-22T08:33:26;27.80;54.80
30148;DHT22;16960;49.404;8.248;2023-06-22T08:35:54;27.80;54.80
30148;DHT22;16960;49.404;8.248;2023-06-22T08:38:22;27.90;54.60
30148;DHT22;16960;49.404;8.248;2023-06-22T08:40:49;27.80;54.60
30148;DHT22;16960;49.404;8.248;2023-06-22T08:43:16;27.90;54.50
30148;DHT22;16960;49.404;8.248;2023-06-22T08:45:43;27.90;54.40
30148;DHT22;16960;49.404;8.248;2023-06-22T08:48:10;27.90;54.50
30148;DHT22;16960;49.404;8.248;2023-06-22T08:50:37;27.90;54.30
30148;DHT22;16960;49.404;8.248;2023-06-22T08:53:06;27.90;54.30
30148;DHT22;16960;49.404;8.248;2023-06-22T08:55:34;27.90;54.30
30148;DHT22;16960;49.404;8.248;2023-06-22T08:58:01;27.90;54.20
30148;DHT22;16960;49.404;8.248;2023-06-22T09:00:29;27.90;54.10
30148;DHT22;16960;49.404;8.248;2023-06-22T09:02:58;28.00;54.60
30148;DHT22;16960;49.404;8.248;2023-06-22T09:05:25;28.00;54.50
30148;DHT22;16960;49.404;8.248;2023-06-22T09:07:52;28.00;54.40
30148;DHT22;16960;49.404;8.248;2023-06-22T09:10:20;28.00;54.40
30148;DHT22;16960;49.404;8.248;2023-06-22T09:12:48;28.00;54.30
30148;DHT22;16960;49.404;8.248;2023-06-22T09:15:15;28.00;54.20
30148;DHT22;16960;49.404;8.248;2023-06-22T09:17:43;28.10;54.20
30148;DHT22;16960;49.404;8.248;2023-06-22T09:20:12;28.10;54.10
30148;DHT22;16960;49.404;8.248;2023-06-22T09:22:39;28.10;54.00
30148;DHT22;16960;49.404;8.248;2023-06-22T09:25:06;28.10;54.00
30148;DHT22;16960;49.404;8.248;2023-06-22T09:27:33;28.10;54.00
30148;DHT22;16960;49.404;8.248;2023-06-22T09:30:02;28.10;53.90
30148;DHT22;16960;49.404;8.248;2023-06-22T09:32:30;28.10;53.90
30148;DHT22;16960;49.404;8.248;2023-06-22T09:34:57;28.10;53.80
30148;DHT22;16960;49.404;8.248;2023-06-22T09:37:23;28.10;53.70
30148;DHT22;16960;49.404;8.248;2023-06-22T09:39:50;28.10;53.80
30148;DHT22;16960;49.404;8.248;2023-06-22T09:42:17;28.10;53.70
30148;DHT22;16960;49.404;8.248;2023-06-22T09:44:44;28.10;53.70
30148;DHT22;16960;49.404;8.248;2023-06-22T09:47:12;28.20;53.70
30148;DHT22;16960;49.404;8.248;2023-06-22T09:49:39;28.20;53.70
30148;DHT22;16960;49.404;8.248;2023-06-22T09:52:07;28.20;53.70
30148;DHT22;16960;49.404;8.248;2023-06-22T09:54:34;28.20;53.60
30148;DHT22;16960;49.404;8.248;2023-06-22T09:57:00;28.20;53.60
30148;DHT22;16960;49.404;8.248;2023-06-22T09:59:27;28.20;53.50
30148;DHT22;16960;49.404;8.248;2023-06-22T10:01:54;28.30;53.50
30148;DHT22;16960;49.404;8.248;2023-06-22T10:04:22;28.30;53.50
30148;DHT22;16960;49.404;8.248;2023-06-22T10:06:50;28.30;53.50
30148;DHT22;16960;49.404;8.248;2023-06-22T10:09:17;28.30;53.60
30148;DHT22;16960;49.404;8.248;2023-06-22T10:11:44;28.40;53.40
30148;DHT22;16960;49.404;8.248;2023-06-22T10:14:10;28.40;53.30
30148;DHT22;16960;49.404;8.248;2023-06-22T10:16:37;28.40;53.30
30148;DHT22;16960;49.404;8.248;2023-06-22T10:19:06;28.40;53.20
30148;DHT22;16960;49.404;8.248;2023-06-22T10:21:35;28.40;53.10
30148;DHT22;16960;49.404;8.248;2023-06-22T10:24:02;28.40;53.10
30148;DHT22;16960;49.404;8.248;2023-06-22T10:26:31;28.40;53.10
30148;DHT22;16960;49.404;8.248;2023-06-22T10:28:58;28.40;53.00
30148;DHT22;16960;49.404;8.248;2023-06-22T10:31:25;28.40;52.90
30148;DHT22;16960;49.404;8.248;2023-06-22T10:33:53;28.40;52.90
30148;DHT22;16960;49.404;8.248;2023-06-22T10:36:20;28.50;52.90
30148;DHT22;16960;49.404;8.248;2023-06-22T10:38:49;28.40;52.80
30148;DHT22;16960;49.404;8.248;2023-06-22T10:41:16;28.40;52.80
30148;DHT22;16960;49.404;8.248;2023-06-22T10:43:43;28.40;52.80
30148;DHT22;16960;49.404;8.248;2023-06-22T10:46:10;28.50;52.80
30148;DHT22;16960;49.404;8.248;2023-06-22T10:48:37;28.50;52.70
30148;DHT22;16960;49.404;8.248;2023-06-22T10:51:04;28.40;52.80
30148;DHT22;16960;49.404;8.248;2023-06-22T10:53:31;28.50;52.80
30148;DHT22;16960;49.404;8.248;2023-06-22T10:55:59;28.50;52.70
30148;DHT22;16960;49.404;8.248;2023-06-22T10:58:26;28.60;52.70
30148;DHT22;16960;49.404;8.248;2023-06-22T11:00:53;28.50;52.60
30148;DHT22;16960;49.404;8.248;2023-06-22T11:03:20;28.60;52.60
30148;DHT22;16960;49.404;8.248;2023-06-22T11:05:47;28.60;52.60
30148;DHT22;16960;49.404;8.248;2023-06-22T11:08:14;28.50;52.80
30148;DHT22;16960;49.404;8.248;2023-06-22T11:10:41;28.60;52.80
30148;DHT22;16960;49.404;8.248;2023-06-22T11:13:09;28.60;52.80
30148;DHT22;16960;49.404;8.248;2023-06-22T11:15:36;28.60;52.80
30148;DHT22;16960;49.404;8.248;2023-06-22T11:18:03;28.60;52.80
30148;DHT22;16960;49.404;8.248;2023-06-22T11:20:33;28.60;52.80
30148;DHT22;16960;49.404;8.248;2023-06-22T11:23:04;28.70;52.80
30148;DHT22;16960;49.404;8.248;2023-06-22T11:25:31;28.70;52.70
30148;DHT22;16960;49.404;8.248;2023-06-22T11:27:58;28.70;52.60
30148;DHT22;16960;49.404;8.248;2023-06-22T11:30:26;28.70;52.60
30148;DHT22;16960;49.404;8.248;2023-06-22T11:32:53;28.70;52.60
30148;DHT22;16960;49.404;8.248;2023-06-22T11:35:20;28.80;52.60
30148;DHT22;16960;49.404;8.248;2023-06-22T11:37:47;28.80;52.50
30148;DHT22;16960;49.404;8.248;2023-06-22T11:40:14;28.80;52.40
30148;DHT22;16960;49.404;8.248;2023-06-22T11:42:41;28.80;52.50
30148;DHT22;16960;49.404;8.248;2023-06-22T11:45:08;28.80;52.50
30148;DHT22;16960;49.404;8.248;2023-06-22T11:47:36;28.80;52.40
30148;DHT22;16960;49.404;8.248;2023-06-22T11:50:06;28.90;52.30
30148;DHT22;16960;49.404;8.248;2023-06-22T11:52:33;28.90;52.30
30148;DHT22;16960;49.404;8.248;2023-06-22T11:55:01;28.90;52.20
30148;DHT22;16960;49.404;8.248;2023-06-22T11:57:29;28.90;52.20
30148;DHT22;16960;49.404;8.248;2023-06-22T11:59:56;28.90;52.20
30148;DHT22;16960;49.404;8.248;2023-06-22T12:02:23;28.90;52.20
30148;DHT22;16960;49.404;8.248;2023-06-22T12:04:51;28.90;52.10
30148;DHT22;16960;49.404;8.248;2023-06-22T12:07:20;28.90;52.10
30148;DHT22;16960;49.404;8.248;2023-06-22T12:09:47;29.00;52.60
30148;DHT22;16960;49.404;8.248;2023-06-22T12:12:14;29.00;52.70
30148;DHT22;16960;49.404;8.248;2023-06-22T12:14:41;29.00;52.70
30148;DHT22;16960;49.404;8.248;2023-06-22T12:17:07;29.00;52.50
30148;DHT22;16960;49.404;8.248;2023-06-22T12:19:34;29.00;52.50
30148;DHT22;16960;49.404;8.248;2023-06-22T12:22:03;29.10;52.60
30148;DHT22;16960;49.404;8.248;2023-06-22T12:24:30;29.10;52.50
30148;DHT22;16960;49.404;8.248;2023-06-22T12:26:57;29.10;52.60
30148;DHT22;16960;49.404;8.248;2023-06-22T12:29:24;29.10;52.50
30148;DHT22;16960;49.404;8.248;2023-06-22T12:31:50;29.10;52.50
30148;DHT22;16960;49.404;8.248;2023-06-22T12:34:17;29.20;52.40
30148;DHT22;16960;49.404;8.248;2023-06-22T12:36:44;29.20;52.30
30148;DHT22;16960;49.404;8.248;2023-06-22T12:39:14;29.20;52.30
30148;DHT22;16960;49.404;8.248;2023-06-22T12:41:41;29.20;52.30
30148;DHT22;16960;49.404;8.248;2023-06-22T12:44:08;29.20;52.20
30148;DHT22;16960;49.404;8.248;2023-06-22T12:46:35;29.20;52.20
30148;DHT22;16960;49.404;8.248;2023-06-22T12:49:03;29.30;52.10
30148;DHT22;16960;49.404;8.248;2023-06-22T12:51:31;29.30;52.20
30148;DHT22;16960;49.404;8.248;2023-06-22T12:53:57;29.30;52.20
30148;DHT22;16960;49.404;8.248;2023-06-22T12:56:26;29.30;52.20
30148;DHT22;16960;49.404;8.248;2023-06-22T12:58:53;29.40;52.10
30148;DHT22;16960;49.404;8.248;2023-06-22T13:01:20;29.40;52.10
30148;DHT22;16960;49.404;8.248;2023-06-22T13:03:47;29.40;52.10
30148;DHT22;16960;49.404;8.248;2023-06-22T13:06:14;29.40;52.20
30148;DHT22;16960;49.404;8.248;2023-06-22T13:08:41;29.50;52.10
30148;DHT22;16960;49.404;8.248;2023-06-22T13:11:09;29.50;52.00
30148;DHT22;16960;49.404;8.248;2023-06-22T13:13:37;29.50;52.10
30148;DHT22;16960;49.404;8.248;2023-06-22T13:16:04;29.50;52.30
30148;DHT22;16960;49.404;8.248;2023-06-22T13:18:31;29.50;52.10
30148;DHT22;16960;49.404;8.248;2023-06-22T13:20:59;29.50;52.10
30148;DHT22;16960;49.404;8.248;2023-06-22T13:23:26;29.50;52.00
30148;DHT22;16960;49.404;8.248;2023-06-22T13:25:53;29.60;51.90
30148;DHT22;16960;49.404;8.248;2023-06-22T13:28:20;29.50;52.00
30148;DHT22;16960;49.404;8.248;2023-06-22T13:30:48;29.60;52.10
30148;DHT22;16960;49.404;8.248;2023-06-22T13:33:15;29.60;52.00
30148;DHT22;16960;49.404;8.248;2023-06-22T13:35:42;29.70;52.20
30148;DHT22;16960;49.404;8.248;2023-06-22T13:38:10;29.60;52.10
30148;DHT22;16960;49.404;8.248;2023-06-22T13:40:37;29.70;52.00
30148;DHT22;16960;49.404;8.248;2023-06-22T13:43:04;29.70;51.90
30148;DHT22;16960;49.404;8.248;2023-06-22T13:45:32;29.70;51.80
30148;DHT22;16960;49.404;8.248;2023-06-22T13:48:00;29.80;51.70
30148;DHT22;16960;49.404;8.248;2023-06-22T13:50:27;29.70;51.60
30148;DHT22;16960;49.404;8.248;2023-06-22T13:52:54;29.80;51.50
30148;DHT22;16960;49.404;8.248;2023-06-22T13:55:22;29.80;51.50
30148;DHT22;16960;49.404;8.248;2023-06-22T13:57:49;29.90;51.40
30148;DHT22;16960;49.404;8.248;2023-06-22T14:00:17;29.80;51.30
30148;DHT22;16960;49.404;8.248;2023-06-22T14:02:44;29.90;51.20
30148;DHT22;16960;49.404;8.248;2023-06-22T14:05:13;29.90;51.50
30148;DHT22;16960;49.404;8.248;2023-06-22T14:07:39;29.90;51.30
30148;DHT22;16960;49.404;8.248;2023-06-22T14:10:07;29.90;51.30
30148;DHT22;16960;49.404;8.248;2023-06-22T14:12:34;29.90;51.40
30148;DHT22;16960;49.404;8.248;2023-06-22T14:15:01;29.90;51.30
30148;DHT22;16960;49.404;8.248;2023-06-22T14:17:28;29.90;51.60
30148;DHT22;16960;49.404;8.248;2023-06-22T14:19:55;29.90;51.40
30148;DHT22;16960;49.404;8.248;2023-06-22T14:22:23;29.90;51.50
30148;DHT22;16960;49.404;8.248;2023-06-22T14:24:50;29.90;51.40
30148;DHT22;16960;49.404;8.248;2023-06-22T14:27:17;30.00;51.80
30148;DHT22;16960;49.404;8.248;2023-06-22T14:29:44;30.00;51.80
30148;DHT22;16960;49.404;8.248;2023-06-22T14:32:11;30.00;51.70
30148;DHT22;16960;49.404;8.248;2023-06-22T14:34:38;30.00;51.50
30148;DHT22;16960;49.404;8.248;2023-06-22T14:37:06;30.00;51.50
30148;DHT22;16960;49.404;8.248;2023-06-22T14:39:36;30.00;51.50
30148;DHT22;16960;49.404;8.248;2023-06-22T14:42:03;30.00;51.50
30148;DHT22;16960;49.404;8.248;2023-06-22T14:44:30;30.10;51.30
30148;DHT22;16960;49.404;8.248;2023-06-22T14:46:57;30.10;51.30
30148;DHT22;16960;49.404;8.248;2023-06-22T14:49:24;30.10;51.30
30148;DHT22;16960;49.404;8.248;2023-06-22T14:51:51;30.10;51.30
30148;DHT22;16960;49.404;8.248;2023-06-22T14:54:18;30.10;51.20
30148;DHT22;16960;49.404;8.248;2023-06-22T14:56:47;30.10;52.00
30148;DHT22;16960;49.404;8.248;2023-06-22T14:59:14;30.00;51.90
30148;DHT22;16960;49.404;8.248;2023-06-22T15:01:41;30.10;51.80
30148;DHT22;16960;49.404;8.248;2023-06-22T15:04:08;30.10;52.30
30148;DHT22;16960;49.404;8.248;2023-06-22T15:06:35;30.00;51.70
30148;DHT22;16960;49.404;8.248;2023-06-22T15:09:02;30.10;51.80
30148;DHT22;16960;49.404;8.248;2023-06-22T15:11:29;30.10;51.90
30148;DHT22;16960;49.404;8.248;2023-06-22T15:13:58;30.10;52.10
30148;DHT22;16960;49.404;8.248;2023-06-22T15:16:26;30.10;51.80
30148;DHT22;16960;49.404;8.248;2023-06-22T15:18:53;30.10;52.10
30148;DHT22;16960;49.404;8.248;2023-06-22T15:21:20;30.10;52.10
30148;DHT22;16960;49.404;8.248;2023-06-22T15:23:47;30.00;52.60
30148;DHT22;16960;49.404;8.248;2023-06-22T15:26:14;30.00;52.60
30148;DHT22;16960;49.404;8.248;2023-06-22T15:28:41;29.90;52.50
30148;DHT22;16960;49.404;8.248;2023-06-22T15:31:10;29.90;52.90
30148;DHT22;16960;49.404;8.248;2023-06-22T15:33:36;29.90;52.80